createdAt,value
2022-12-31T00:00:21.519Z,77.20
2022-12-31T00:02:48.479Z,77.30
2022-12-31T00:05:15.413Z,77.30
2022-12-31T00:10:08.378Z,77.40
2022-12-31T00:12:35.141Z,77.20
2022-12-31T00:15:02.213Z,77.30
2022-12-31T00:17:29.537Z,77.40
2022-12-31T00:19:56.427Z,77.30
2022-12-31T00:22:23.285Z,77.50
2022-12-31T00:24:50.153Z,77.50
2022-12-31T00:27:17.060Z,77.50
2022-12-31T00:29:44.197Z,77.40
2022-12-31T00:32:11.100Z,77.30
2022-12-31T00:34:38.149Z,77.30
2022-12-31T00:37:05.033Z,77.60
2022-12-31T00:39:31.819Z,77.20
2022-12-31T00:41:58.618Z,77.10
2022-12-31T00:44:25.460Z,77.40
2022-12-31T00:46:52.356Z,77.20
2022-12-31T00:49:19.262Z,77.20
2022-12-31T00:51:47.529Z,77.50
2022-12-31T00:54:14.844Z,77.70
2022-12-31T00:56:41.588Z,77.90
2022-12-31T00:59:08.358Z,77.70
2022-12-31T01:01:38.238Z,77.70
2022-12-31T01:04:14.350Z,77.60
2022-12-31T01:06:42.567Z,77.90
2022-12-31T01:09:11.054Z,77.80
2022-12-31T01:11:37.992Z,77.80
2022-12-31T01:14:09.074Z,77.70
2022-12-31T01:16:39.917Z,77.70
2022-12-31T01:19:13.463Z,77.70
2022-12-31T01:21:41.852Z,77.70
2022-12-31T01:24:10.533Z,77.60
2022-12-31T01:26:37.985Z,77.60
2022-12-31T01:29:06.429Z,77.60
2022-12-31T01:31:34.485Z,77.60
2022-12-31T01:34:01.996Z,77.60
2022-12-31T01:36:30.789Z,77.60
2022-12-31T01:38:59.126Z,77.60
2022-12-31T01:41:35.254Z,77.60
2022-12-31T01:44:23.466Z,77.50
2022-12-31T01:46:54.934Z,77.50
2022-12-31T01:49:31.244Z,77.50
2022-12-31T01:52:11.694Z,77.50
2022-12-31T01:54:43.655Z,77.40
2022-12-31T01:57:11.880Z,77.30
2022-12-31T01:59:38.952Z,77.30
2022-12-31T02:02:06.432Z,77.20
2022-12-31T02:04:33.489Z,77.10
2022-12-31T02:07:03.502Z,77.10
2022-12-31T02:09:31.523Z,77.10
2022-12-31T02:11:58.426Z,77.00
2022-12-31T02:14:30.942Z,77.00
2022-12-31T02:17:32.513Z,77.10
2022-12-31T02:20:11.375Z,77.10
2022-12-31T02:22:44.104Z,77.30
2022-12-31T02:25:16.797Z,77.30
2022-12-31T02:28:13.581Z,77.20
2022-12-31T02:30:41.702Z,77.20
2022-12-31T02:33:27.030Z,77.30
2022-12-31T02:36:02.392Z,77.20
2022-12-31T02:38:33.209Z,77.20
2022-12-31T02:41:00.919Z,77.10
2022-12-31T02:43:28.080Z,77.10
2022-12-31T02:46:11.968Z,77.00
2022-12-31T02:48:46.947Z,76.90
2022-12-31T02:51:33.449Z,76.90
2022-12-31T02:54:28.529Z,76.90
2022-12-31T02:57:19.109Z,76.90
2022-12-31T03:00:21.998Z,76.90
2022-12-31T03:02:51.527Z,76.90
2022-12-31T03:05:22.955Z,76.80
2022-12-31T03:07:49.953Z,76.80
2022-12-31T03:10:17.146Z,76.70
2022-12-31T03:12:47.779Z,76.70
2022-12-31T03:15:23.630Z,76.60
2022-12-31T03:17:56.278Z,76.60
2022-12-31T03:20:50.252Z,76.60
2022-12-31T03:23:32.544Z,76.70
2022-12-31T03:26:00.924Z,76.70
2022-12-31T03:28:29.892Z,76.80
2022-12-31T03:30:59.403Z,76.80
2022-12-31T03:33:32.465Z,76.70
2022-12-31T03:35:59.413Z,76.60
2022-12-31T03:38:28.609Z,76.70
2022-12-31T03:40:55.856Z,76.60
2022-12-31T03:43:22.702Z,76.60
2022-12-31T03:45:54.228Z,76.50
2022-12-31T03:48:22.835Z,76.40
2022-12-31T03:50:49.934Z,76.40
2022-12-31T03:53:16.981Z,76.50
2022-12-31T03:55:44.648Z,76.60
2022-12-31T03:58:11.458Z,76.50
2022-12-31T04:00:38.645Z,76.50
2022-12-31T04:03:05.526Z,76.50
2022-12-31T04:05:33.640Z,76.40
2022-12-31T04:08:00.550Z,76.60
2022-12-31T04:10:28.934Z,76.60
2022-12-31T04:12:55.678Z,76.60
2022-12-31T04:15:22.598Z,76.70
2022-12-31T04:17:49.523Z,76.60
2022-12-31T04:20:16.922Z,76.70
2022-12-31T04:22:44.163Z,76.70
2022-12-31T04:25:11.511Z,76.80
2022-12-31T04:27:43.839Z,76.70
2022-12-31T04:30:11.349Z,76.70
2022-12-31T04:32:40.042Z,76.60
2022-12-31T04:35:07.549Z,76.50
2022-12-31T04:37:34.440Z,76.50
2022-12-31T04:40:05.965Z,76.70
2022-12-31T04:42:33.777Z,76.80
2022-12-31T04:45:00.526Z,76.70
2022-12-31T04:47:27.998Z,76.70
2022-12-31T04:49:55.003Z,76.80
2022-12-31T04:52:22.309Z,76.90
2022-12-31T04:54:49.108Z,76.90
2022-12-31T04:57:16.001Z,76.90
2022-12-31T04:59:42.747Z,76.90
2022-12-31T05:02:09.837Z,76.90
2022-12-31T05:04:36.772Z,76.90
2022-12-31T05:07:03.791Z,76.80
2022-12-31T05:09:31.243Z,76.90
2022-12-31T05:11:58.102Z,76.90
2022-12-31T05:14:25.195Z,76.80
2022-12-31T05:16:52.214Z,76.80
2022-12-31T05:19:18.956Z,76.80
2022-12-31T05:22:05.925Z,76.70
2022-12-31T05:24:32.794Z,76.70
2022-12-31T05:26:59.620Z,76.90
2022-12-31T05:29:26.733Z,76.90
2022-12-31T05:31:53.662Z,76.90
2022-12-31T05:34:20.519Z,77.00
2022-12-31T05:36:47.443Z,76.90
2022-12-31T05:39:14.387Z,77.00
2022-12-31T05:41:41.287Z,77.00
2022-12-31T05:44:08.020Z,77.00
2022-12-31T05:46:35.073Z,77.00
2022-12-31T05:49:01.812Z,77.20
2022-12-31T05:51:28.650Z,77.30
2022-12-31T05:53:55.521Z,77.40
2022-12-31T05:56:22.298Z,77.60
2022-12-31T05:58:49.039Z,77.50
2022-12-31T06:01:15.884Z,77.50
2022-12-31T06:03:42.767Z,77.40
2022-12-31T06:06:09.769Z,77.50
2022-12-31T06:08:37.168Z,77.70
2022-12-31T06:11:04.266Z,77.70
2022-12-31T06:13:31.107Z,77.70
2022-12-31T06:15:58.155Z,77.70
2022-12-31T06:18:24.960Z,77.90
2022-12-31T06:20:53.383Z,77.90
2022-12-31T06:23:20.377Z,78.00
2022-12-31T06:25:47.350Z,77.90
2022-12-31T06:28:20.074Z,77.80
2022-12-31T06:30:47.738Z,77.80
2022-12-31T06:33:14.706Z,78.00
2022-12-31T06:35:41.513Z,77.90
2022-12-31T06:38:08.258Z,77.90
2022-12-31T06:40:37.590Z,78.00
2022-12-31T06:43:04.481Z,78.00
2022-12-31T06:45:31.297Z,78.20
2022-12-31T06:47:58.160Z,78.30
2022-12-31T06:50:24.966Z,78.20
2022-12-31T06:52:51.709Z,78.20
2022-12-31T06:55:18.914Z,78.30
2022-12-31T06:57:45.951Z,78.90
2022-12-31T07:00:13.478Z,78.40
2022-12-31T07:02:50.404Z,78.30
2022-12-31T07:05:39.464Z,78.40
2022-12-31T07:08:26.310Z,78.50
2022-12-31T07:11:10.882Z,78.50
2022-12-31T07:13:59.896Z,78.60
2022-12-31T07:16:29.830Z,78.50
2022-12-31T07:19:17.873Z,79.00
2022-12-31T07:21:44.887Z,79.10
2022-12-31T07:24:12.516Z,79.30
2022-12-31T07:26:42.159Z,79.40
2022-12-31T07:29:40.286Z,79.30
2022-12-31T07:32:35.133Z,79.50
2022-12-31T07:35:37.262Z,79.50
2022-12-31T07:38:23.411Z,79.60
2022-12-31T07:40:53.304Z,79.80
2022-12-31T07:43:28.964Z,80.20
2022-12-31T07:46:15.330Z,80.70
2022-12-31T07:48:42.413Z,80.10
2022-12-31T07:51:11.008Z,80.10
2022-12-31T07:53:38.212Z,80.20
2022-12-31T07:56:07.550Z,80.20
2022-12-31T07:58:40.544Z,80.10
2022-12-31T08:01:11.595Z,80.20
2022-12-31T08:03:57.262Z,80.30
2022-12-31T08:06:44.627Z,80.20
2022-12-31T08:09:40.970Z,80.20
2022-12-31T08:12:08.715Z,80.10
2022-12-31T08:14:44.234Z,80.20
2022-12-31T08:17:16.350Z,79.90
2022-12-31T08:19:43.968Z,79.90
2022-12-31T08:22:53.348Z,80.10
2022-12-31T08:25:28.025Z,80.00
2022-12-31T08:28:20.006Z,79.90
2022-12-31T08:31:05.642Z,79.70
2022-12-31T08:33:42.323Z,79.70
2022-12-31T08:36:27.892Z,79.90
2022-12-31T08:39:02.956Z,79.90
2022-12-31T08:41:45.096Z,79.80
2022-12-31T08:44:27.151Z,79.60
2022-12-31T08:47:03.092Z,79.60
2022-12-31T08:49:33.568Z,79.70
2022-12-31T08:52:01.800Z,79.30
2022-12-31T08:54:29.176Z,79.30
2022-12-31T08:57:11.822Z,79.10
2022-12-31T08:59:44.806Z,79.00
2022-12-31T09:02:35.096Z,79.00
2022-12-31T09:05:10.641Z,79.20
2022-12-31T09:07:53.611Z,79.40
2022-12-31T09:10:44.337Z,79.50
2022-12-31T09:13:29.020Z,79.40
2022-12-31T09:16:29.991Z,79.30
2022-12-31T09:18:56.822Z,79.40
2022-12-31T09:21:23.751Z,79.40
2022-12-31T09:23:50.749Z,79.50
2022-12-31T09:26:35.613Z,79.50
2022-12-31T09:29:38.916Z,79.50
2022-12-31T09:32:48.664Z,79.90
2022-12-31T09:35:29.996Z,79.80
2022-12-31T09:38:11.593Z,79.60
2022-12-31T09:40:55.895Z,79.40
2022-12-31T09:43:25.490Z,79.50
2022-12-31T09:46:16.298Z,79.30
2022-12-31T09:48:55.089Z,79.50
2022-12-31T09:51:32.798Z,79.40
2022-12-31T09:53:59.671Z,79.50
2022-12-31T09:56:29.402Z,79.60
2022-12-31T09:59:18.127Z,79.50
2022-12-31T10:01:48.075Z,79.60
2022-12-31T10:05:05.650Z,79.50
2022-12-31T10:07:50.403Z,79.30
2022-12-31T10:11:02.698Z,79.50
2022-12-31T10:13:44.384Z,79.10
2022-12-31T10:16:36.163Z,78.90
2022-12-31T10:19:30.374Z,79.00
2022-12-31T10:22:15.933Z,78.80
2022-12-31T10:24:59.922Z,78.80
2022-12-31T10:27:55.007Z,78.80
2022-12-31T10:30:24.614Z,79.10
2022-12-31T10:33:08.988Z,78.90
2022-12-31T10:36:08.192Z,78.90
2022-12-31T10:39:15.320Z,78.90
2022-12-31T10:42:03.071Z,79.10
2022-12-31T10:44:48.959Z,78.80
2022-12-31T10:47:30.645Z,78.80
2022-12-31T10:50:21.506Z,78.70
2022-12-31T10:53:09.341Z,78.60
2022-12-31T10:55:54.569Z,78.50
2022-12-31T10:58:59.246Z,78.60
2022-12-31T11:01:37.960Z,78.30
2022-12-31T11:04:35.736Z,78.50
2022-12-31T11:07:21.409Z,78.50
2022-12-31T11:10:16.309Z,78.20
2022-12-31T11:13:17.024Z,78.30
2022-12-31T11:16:02.894Z,78.60
2022-12-31T11:18:57.585Z,78.60
2022-12-31T11:21:50.589Z,78.80
2022-12-31T11:24:42.021Z,78.80
2022-12-31T11:27:48.959Z,78.80
2022-12-31T11:30:23.707Z,78.70
2022-12-31T11:33:15.297Z,79.00
2022-12-31T11:36:00.751Z,79.10
2022-12-31T11:38:36.014Z,79.00
2022-12-31T11:41:31.023Z,78.90
2022-12-31T11:44:40.301Z,79.20
2022-12-31T11:47:33.467Z,79.30
2022-12-31T11:50:24.329Z,79.20
2022-12-31T11:53:15.313Z,78.70
2022-12-31T11:55:57.429Z,78.70
2022-12-31T11:58:28.940Z,78.50
2022-12-31T12:01:02.029Z,78.30
2022-12-31T12:03:29.605Z,78.10
2022-12-31T12:05:58.317Z,77.90
2022-12-31T12:08:27.356Z,77.90
2022-12-31T12:11:05.181Z,78.00
2022-12-31T12:13:32.053Z,77.90
2022-12-31T12:16:02.066Z,78.00
2022-12-31T12:18:36.235Z,77.40
2022-12-31T12:21:13.680Z,77.60
2022-12-31T12:23:42.603Z,77.40
2022-12-31T12:26:36.956Z,77.30
2022-12-31T12:29:26.431Z,77.30
2022-12-31T12:32:16.866Z,77.20
2022-12-31T12:34:49.318Z,77.10
2022-12-31T12:37:34.689Z,77.20
2022-12-31T12:40:09.426Z,76.90
2022-12-31T12:42:36.701Z,76.90
2022-12-31T12:45:27.008Z,76.90
2022-12-31T12:48:02.599Z,76.80
2022-12-31T12:50:55.920Z,76.80
2022-12-31T12:53:57.214Z,76.70
2022-12-31T12:56:51.735Z,76.70
2022-12-31T12:59:42.926Z,76.90
2022-12-31T13:02:42.912Z,77.00
2022-12-31T13:05:37.657Z,76.70
2022-12-31T13:08:22.752Z,76.50
2022-12-31T13:11:22.171Z,76.90
2022-12-31T13:13:52.089Z,76.90
2022-12-31T13:16:39.477Z,77.00
2022-12-31T13:19:33.277Z,76.70
2022-12-31T13:22:15.380Z,76.70
2022-12-31T13:25:21.029Z,76.90
2022-12-31T13:27:50.975Z,76.90
2022-12-31T13:30:21.659Z,77.00
2022-12-31T13:33:18.930Z,76.80
2022-12-31T13:35:51.617Z,76.70
2022-12-31T13:38:30.389Z,76.70
2022-12-31T13:41:32.104Z,76.70
2022-12-31T13:44:13.743Z,76.90
2022-12-31T13:47:03.117Z,76.90
2022-12-31T13:49:48.244Z,77.00
2022-12-31T13:52:38.081Z,77.20
2022-12-31T13:55:23.284Z,77.10
2022-12-31T13:57:54.957Z,77.10
2022-12-31T14:00:33.546Z,77.70
2022-12-31T14:03:12.628Z,77.10
2022-12-31T14:05:47.486Z,76.90
2022-12-31T14:08:14.773Z,76.90
2022-12-31T14:10:54.795Z,76.80
2022-12-31T14:13:34.752Z,76.90
2022-12-31T14:16:23.048Z,76.90
2022-12-31T14:19:07.527Z,76.60
2022-12-31T14:21:56.616Z,76.40
2022-12-31T14:24:40.895Z,76.50
2022-12-31T14:27:14.445Z,76.40
2022-12-31T14:29:41.239Z,76.00
2022-12-31T14:32:20.016Z,76.00
2022-12-31T14:35:18.561Z,75.70
2022-12-31T14:38:03.664Z,75.60
2022-12-31T14:40:42.489Z,75.70
2022-12-31T14:44:17.180Z,75.40
2022-12-31T14:47:01.475Z,75.50
2022-12-31T14:49:39.994Z,75.30
2022-12-31T14:52:22.630Z,75.50
2022-12-31T14:55:09.013Z,75.10
2022-12-31T14:58:17.076Z,75.00
2022-12-31T15:00:40.158Z,75.00
2022-12-31T15:03:16.140Z,74.80
2022-12-31T15:06:15.135Z,74.80
2022-12-31T15:09:08.313Z,74.90
2022-12-31T15:11:59.611Z,74.80
2022-12-31T15:14:45.335Z,74.60
2022-12-31T15:17:12.271Z,74.60
2022-12-31T15:19:50.131Z,73.80
2022-12-31T15:22:26.021Z,73.90
2022-12-31T15:24:53.021Z,73.70
2022-12-31T15:27:39.998Z,73.90
2022-12-31T15:30:07.615Z,73.80
2022-12-31T15:32:41.402Z,73.30
2022-12-31T15:35:23.486Z,73.00
2022-12-31T15:38:17.083Z,73.30
2022-12-31T15:40:49.606Z,73.20
2022-12-31T15:43:33.809Z,72.60
2022-12-31T15:46:02.051Z,72.20
2022-12-31T15:48:51.741Z,72.20
2022-12-31T15:51:43.759Z,72.10
2022-12-31T15:54:23.757Z,71.80
2022-12-31T15:56:51.726Z,71.40
2022-12-31T15:59:20.458Z,71.00
2022-12-31T16:01:48.480Z,71.50
2022-12-31T16:04:20.251Z,71.80
2022-12-31T16:06:50.926Z,71.40
2022-12-31T16:09:34.397Z,71.30
2022-12-31T16:12:04.011Z,70.70
2022-12-31T16:14:40.509Z,70.70
2022-12-31T16:17:07.596Z,70.70
2022-12-31T16:19:41.178Z,70.10
2022-12-31T16:22:24.291Z,70.10
2022-12-31T16:27:48.657Z,70.00
2022-12-31T16:30:22.094Z,69.60
2022-12-31T16:32:50.692Z,69.70
2022-12-31T16:35:27.769Z,69.60
2022-12-31T16:38:02.457Z,69.50
2022-12-31T16:40:29.750Z,69.20
2022-12-31T16:42:56.545Z,69.10
2022-12-31T16:45:32.871Z,69.30
2022-12-31T16:48:17.249Z,69.00
2022-12-31T16:50:52.395Z,68.70
2022-12-31T16:53:26.981Z,68.90
2022-12-31T16:55:57.449Z,69.00
2022-12-31T16:58:37.302Z,68.90
2022-12-31T17:01:23.020Z,68.70
2022-12-31T17:03:55.012Z,68.40
2022-12-31T17:06:22.609Z,68.60
2022-12-31T17:08:59.534Z,68.50
2022-12-31T17:12:04.793Z,68.50
2022-12-31T17:14:31.674Z,68.60
2022-12-31T17:17:07.547Z,68.60
2022-12-31T17:19:45.046Z,68.40
2022-12-31T17:22:36.755Z,68.40
2022-12-31T17:25:27.966Z,68.40
2022-12-31T17:28:05.614Z,68.30
2022-12-31T17:30:32.846Z,68.20
2022-12-31T17:33:03.925Z,67.80
2022-12-31T17:35:36.938Z,67.70
2022-12-31T17:38:21.974Z,67.60
2022-12-31T17:40:54.223Z,67.50
2022-12-31T17:43:22.046Z,67.50
2022-12-31T17:45:52.016Z,67.40
2022-12-31T17:48:20.546Z,67.30
2022-12-31T17:50:51.648Z,67.30
2022-12-31T17:53:19.090Z,67.30
2022-12-31T17:55:48.994Z,67.40
2022-12-31T17:58:51.641Z,67.20
2022-12-31T18:01:22.455Z,67.00
2022-12-31T18:03:50.112Z,67.00
2022-12-31T18:06:19.726Z,66.80
2022-12-31T18:08:46.801Z,66.80
2022-12-31T18:11:19.807Z,66.80
2022-12-31T18:13:46.797Z,66.70
2022-12-31T18:16:14.213Z,66.50
2022-12-31T18:18:42.408Z,66.40
2022-12-31T18:21:32.687Z,66.40
2022-12-31T18:26:27.767Z,66.20
2022-12-31T18:28:54.664Z,66.10
2022-12-31T18:31:28.128Z,66.10
2022-12-31T18:33:57.464Z,65.70
2022-12-31T18:36:25.792Z,65.20
2022-12-31T18:38:53.108Z,64.80
2022-12-31T18:41:22.439Z,64.90
2022-12-31T18:43:50.064Z,64.50
2022-12-31T18:46:19.396Z,64.40
2022-12-31T18:48:46.372Z,64.20
2022-12-31T18:51:19.108Z,64.10
2022-12-31T18:53:46.189Z,63.80
2022-12-31T18:56:15.522Z,63.50
2022-12-31T18:58:43.297Z,63.30
2022-12-31T19:01:31.987Z,63.70
2022-12-31T19:04:04.705Z,63.60
2022-12-31T19:06:31.802Z,63.20
2022-12-31T19:09:00.874Z,62.90
2022-12-31T19:11:28.226Z,63.20
2022-12-31T19:13:55.181Z,63.10
2022-12-31T19:16:22.029Z,62.80
2022-12-31T19:18:49.576Z,62.30
2022-12-31T19:21:19.448Z,62.50
2022-12-31T19:23:47.102Z,62.30
2022-12-31T19:26:16.398Z,61.70
2022-12-31T19:28:44.428Z,62.20
2022-12-31T19:31:11.591Z,62.10
2022-12-31T19:33:38.980Z,62.20
2022-12-31T19:36:07.461Z,61.70
2022-12-31T19:38:34.778Z,62.00
2022-12-31T19:41:02.432Z,61.50
2022-12-31T19:43:29.691Z,61.20
2022-12-31T19:45:56.664Z,61.20
2022-12-31T19:48:32.330Z,61.30
2022-12-31T19:51:00.346Z,61.40
2022-12-31T19:53:28.672Z,61.10
2022-12-31T19:55:55.716Z,60.90
2022-12-31T19:58:27.901Z,60.90
2022-12-31T20:01:01.203Z,60.90
2022-12-31T20:03:29.531Z,61.30
2022-12-31T20:06:08.130Z,61.40
2022-12-31T20:08:36.770Z,61.30
2022-12-31T20:11:15.431Z,61.50
2022-12-31T20:13:43.410Z,61.30
2022-12-31T20:16:21.641Z,61.30
2022-12-31T20:18:48.868Z,60.90
2022-12-31T20:21:18.781Z,61.10
2022-12-31T20:23:46.250Z,61.10
2022-12-31T20:26:13.643Z,61.00
2022-12-31T20:28:40.441Z,61.10
2022-12-31T20:31:13.663Z,60.90
2022-12-31T20:33:40.868Z,61.10
2022-12-31T20:36:10.485Z,61.00
2022-12-31T20:38:37.571Z,60.50
2022-12-31T20:41:10.202Z,60.50
2022-12-31T20:43:37.610Z,60.50
2022-12-31T20:46:15.551Z,60.80
2022-12-31T20:48:43.941Z,60.40
2022-12-31T20:51:11.302Z,60.20
2022-12-31T20:53:38.305Z,60.50
2022-12-31T20:56:06.255Z,60.70
2022-12-31T20:58:33.475Z,60.90
2022-12-31T21:01:00.680Z,60.60
2022-12-31T21:04:03.593Z,60.50
2022-12-31T21:06:16.009Z,60.40
2022-12-31T21:08:43.637Z,60.30
2022-12-31T21:11:28.903Z,60.20
2022-12-31T21:13:56.876Z,60.30
2022-12-31T21:16:24.895Z,60.80
2022-12-31T21:18:52.721Z,60.20
2022-12-31T21:21:19.671Z,60.40
2022-12-31T21:23:46.972Z,60.10
2022-12-31T21:26:14.107Z,59.90
2022-12-31T21:28:41.055Z,59.80
2022-12-31T21:31:09.130Z,59.90
2022-12-31T21:33:36.019Z,60.10
2022-12-31T21:36:04.982Z,60.30
2022-12-31T21:38:32.320Z,60.20
2022-12-31T21:41:03.461Z,60.30
2022-12-31T21:43:30.560Z,60.60
2022-12-31T21:46:05.884Z,60.20
2022-12-31T21:48:34.041Z,60.30
2022-12-31T21:51:15.407Z,60.30
2022-12-31T21:53:42.511Z,60.10
2022-12-31T21:56:11.235Z,60.20
2022-12-31T21:58:44.087Z,59.80
2022-12-31T22:01:38.480Z,60.20
2022-12-31T22:04:07.864Z,59.80
2022-12-31T22:06:36.970Z,59.80
2022-12-31T22:09:03.839Z,59.90
2022-12-31T22:11:30.700Z,60.00
2022-12-31T22:13:57.870Z,60.10
2022-12-31T22:16:24.902Z,59.80
2022-12-31T22:18:55.023Z,59.40
2022-12-31T22:21:24.136Z,59.80
2022-12-31T22:23:53.635Z,59.30
2022-12-31T22:26:24.020Z,59.20
2022-12-31T22:28:51.352Z,59.00
2022-12-31T22:31:21.645Z,59.30
2022-12-31T22:33:48.829Z,58.90
2022-12-31T22:36:21.399Z,59.00
2022-12-31T22:38:49.079Z,59.20
2022-12-31T22:41:19.097Z,58.50
2022-12-31T22:43:51.661Z,58.60
2022-12-31T22:46:24.721Z,58.80
2022-12-31T22:48:53.343Z,58.90
2022-12-31T22:51:21.045Z,58.70
2022-12-31T22:53:48.557Z,58.70
2022-12-31T22:56:17.855Z,58.80
2022-12-31T22:58:45.895Z,58.80
2022-12-31T23:01:15.778Z,59.10
2022-12-31T23:03:42.940Z,59.00
2022-12-31T23:06:09.937Z,58.60
2022-12-31T23:08:36.854Z,58.50
2022-12-31T23:11:09.607Z,58.90
2022-12-31T23:14:00.737Z,59.10
2022-12-31T23:16:48.351Z,58.70
2022-12-31T23:19:34.624Z,58.60
2022-12-31T23:22:19.660Z,58.70
2022-12-31T23:24:46.485Z,58.90
2022-12-31T23:27:13.310Z,59.00
2022-12-31T23:29:46.665Z,58.70
2022-12-31T23:32:18.823Z,58.80
2022-12-31T23:34:46.603Z,58.70
2022-12-31T23:37:14.550Z,58.70
2022-12-31T23:39:42.084Z,58.60
2022-12-31T23:42:08.964Z,58.40
2022-12-31T23:44:35.911Z,58.60
2022-12-31T23:47:02.876Z,58.70
2022-12-31T23:49:30.309Z,58.90
2022-12-31T23:51:57.255Z,59.10
2022-12-31T23:54:24.551Z,58.70
2022-12-31T23:56:51.553Z,58.80
2022-12-31T23:59:18.500Z,59.10
